Time;durP1;ratioP1;P1;durP2;ratioP2;P2;SDS_P1;SDS_P2;PMS_P1;PMS_P2;Temp;Humidity;BMP_temperature;BMP_pressure;BME280_temperature;BME280_humidity;BME280_pressure;Samples;Min_cycle;Max_cycle;Signal;HPM_P1;HPM_P2
2023/05/19 00:02:14;;;;;;;6.63;2.15;;;14.20;75.50;;;;;;5092130;28;20048;-77
2023/05/19 00:04:40;;;;;;;7.05;2.63;;;14.20;75.70;;;;;;5093308;28;20040;-77
2023/05/19 00:07:10;;;;;;;8.00;2.10;;;14.20;75.90;;;;;;5093286;28;20103;-77
2023/05/19 00:09:36;;;;;;;6.60;2.47;;;14.10;76.30;;;;;;5092989;28;20030;-77
2023/05/19 00:12:02;;;;;;;6.18;2.35;;;14.10;76.10;;;;;;5093695;28;20043;-77
2023/05/19 00:14:28;;;;;;;6.38;2.50;;;14.10;76.40;;;;;;5097031;28;20478;-77
2023/05/19 00:16:54;;;;;;;10.50;2.13;;;13.90;77.00;;;;;;5097015;28;20028;-77
2023/05/19 00:19:23;;;;;;;6.13;2.03;;;13.80;77.20;;;;;;5096705;28;20123;-77
2023/05/19 00:21:48;;;;;;;6.05;1.73;;;13.90;77.30;;;;;;5097036;28;20028;-77
2023/05/19 00:24:14;;;;;;;5.70;2.63;;;14.00;77.30;;;;;;5078749;28;20024;-77
2023/05/19 00:26:40;;;;;;;6.45;2.55;;;14.00;77.00;;;;;;5096933;28;20512;-77
2023/05/19 00:29:05;;;;;;;7.85;2.40;;;14.00;77.30;;;;;;5096115;28;20064;-77
2023/05/19 00:31:32;;;;;;;5.07;1.52;;;13.80;77.60;;;;;;5096556;28;20408;-77
2023/05/19 00:33:58;;;;;;;7.53;2.40;;;13.80;77.90;;;;;;5078943;28;20028;-77
2023/05/19 00:36:24;;;;;;;6.70;2.33;;;13.90;77.90;;;;;;5078197;28;20028;-77
2023/05/19 00:38:51;;;;;;;5.05;2.08;;;13.80;78.10;;;;;;5078292;28;20078;-77
2023/05/19 00:41:17;;;;;;;5.55;2.10;;;13.70;78.40;;;;;;5096735;28;20035;-77
2023/05/19 00:43:42;;;;;;;4.03;2.00;;;13.70;78.80;;;;;;5078344;28;20028;-77
2023/05/19 00:46:09;;;;;;;8.25;2.60;;;13.70;78.90;;;;;;5078119;28;20127;-77
2023/05/19 00:48:35;;;;;;;9.00;2.58;;;13.70;78.80;;;;;;5078384;28;20395;-77
2023/05/19 00:51:05;;;;;;;5.95;1.90;;;13.70;78.80;;;;;;5096072;28;20024;-77
2023/05/19 00:53:32;;;;;;;9.55;2.92;;;13.80;78.70;;;;;;5096436;28;20044;-76
2023/05/19 00:55:59;;;;;;;9.38;3.10;;;13.70;79.00;;;;;;5096334;28;20483;-77
2023/05/19 00:58:29;;;;;;;5.68;2.10;;;13.60;79.60;;;;;;5077435;28;20036;-78
2023/05/19 01:01:02;;;;;;;7.97;2.33;;;13.40;80.10;;;;;;5078409;28;20146;-77
2023/05/19 01:03:33;;;;;;;7.88;2.20;;;13.50;80.00;;;;;;5078119;28;20107;-77
2023/05/19 01:06:03;;;;;;;5.82;2.05;;;13.60;79.60;;;;;;5096154;28;20028;-77
2023/05/19 01:08:32;;;;;;;7.72;2.03;;;13.80;79.50;;;;;;5077400;28;20024;-77
2023/05/19 01:10:58;;;;;;;4.63;2.10;;;13.90;79.30;;;;;;5095970;28;20115;-77
2023/05/19 01:13:25;;;;;;;4.30;1.90;;;13.80;79.40;;;;;;5077844;28;20034;-77
2023/05/19 01:16:06;;;;;;;10.40;2.50;;;13.70;79.70;;;;;;5095968;28;20028;-77
2023/05/19 01:18:56;;;;;;;8.23;2.60;;;13.70;80.00;;;;;;5095680;28;20468;-77
2023/05/19 01:21:35;;;;;;;8.75;2.63;;;13.60;80.40;;;;;;5095906;28;20028;-77
2023/05/19 01:24:44;;;;;;;5.93;2.20;;;13.40;81.00;;;;;;5076512;28;20457;-77
2023/05/19 01:27:40;;;;;;;7.47;2.47;;;13.40;81.60;;;;;;5095614;28;20024;-77
2023/05/19 01:30:18;;;;;;;9.77;3.00;;;13.40;81.50;;;;;;5077031;28;20383;-77
2023/05/19 01:32:46;;;;;;;10.73;3.10;;;13.30;81.70;;;;;;5095667;28;20088;-77
2023/05/19 01:35:15;;;;;;;6.93;2.70;;;13.10;82.40;;;;;;5095682;28;20412;-77
2023/05/19 01:37:44;;;;;;;9.27;2.63;;;13.10;82.70;;;;;;5095436;28;20464;-77
2023/05/19 01:40:10;;;;;;;8.23;2.72;;;13.10;83.00;;;;;;5095482;28;20153;-77
2023/05/19 01:42:38;;;;;;;7.38;2.88;;;13.10;82.80;;;;;;5095131;28;20028;-77
2023/05/19 01:45:09;;;;;;;7.65;2.67;;;13.20;82.80;;;;;;5095354;28;20032;-77
2023/05/19 01:47:38;;;;;;;5.38;1.90;;;13.10;82.90;;;;;;5077236;28;20028;-77
2023/05/19 01:50:05;;;;;;;8.20;2.70;;;13.20;83.10;;;;;;5095278;28;20028;-77
2023/05/19 01:52:31;;;;;;;7.75;2.60;;;13.30;83.00;;;;;;5076858;28;20085;-77
2023/05/19 01:54:57;;;;;;;5.40;1.98;;;13.30;82.90;;;;;;5077318;28;20380;-77
2023/05/19 01:57:22;;;;;;;7.53;2.38;;;13.30;83.00;;;;;;5095215;28;20036;-77
2023/05/19 02:00:07;;;;;;;11.25;3.10;;;13.30;82.90;;;;;;5076512;28;20032;-77
2023/05/19 02:02:59;;;;;;;7.13;2.78;;;13.30;82.80;;;;;;5095207;28;20177;-77
2023/05/19 02:05:38;;;;;;;8.80;2.45;;;13.20;83.10;;;;;;5094860;28;20028;-77
2023/05/19 02:08:15;;;;;;;6.57;2.70;;;13.10;83.40;;;;;;5094992;28;20023;-77
2023/05/19 02:10:44;;;;;;;10.68;2.95;;;13.20;83.50;;;;;;5076856;28;20031;-78
2023/05/19 02:13:12;;;;;;;7.88;2.80;;;13.10;83.70;;;;;;5094847;28;20028;-77
2023/05/19 02:15:41;;;;;;;7.32;2.45;;;12.90;84.30;;;;;;5094460;28;20031;-78
2023/05/19 02:18:10;;;;;;;4.70;1.85;;;13.00;84.40;;;;;;5094990;28;20103;-77
2023/05/19 02:20:39;;;;;;;13.05;3.10;;;13.10;84.10;;;;;;5094708;28;20024;-77
2023/05/19 02:23:05;;;;;;;11.02;2.70;;;13.20;83.80;;;;;;5077112;28;20024;-77
2023/05/19 02:25:31;;;;;;;6.80;2.25;;;13.20;83.90;;;;;;5094408;28;20027;-77
2023/05/19 02:27:57;;;;;;;6.32;2.90;;;13.30;83.70;;;;;;5094347;28;20357;-77
2023/05/19 02:30:23;;;;;;;7.93;2.70;;;13.40;83.30;;;;;;5094104;28;20142;-78
2023/05/19 02:32:49;;;;;;;5.65;2.42;;;13.30;83.40;;;;;;5059878;28;20111;-78
2023/05/19 02:35:14;;;;;;;4.72;1.67;;;13.20;84.30;;;;;;5076008;28;20028;-77
2023/05/19 02:37:40;;;;;;;4.97;1.95;;;13.30;83.90;;;;;;5076159;28;20806;-78
2023/05/19 02:40:06;;;;;;;7.75;2.63;;;13.40;83.60;;;;;;5094340;28;20086;-78
2023/05/19 02:42:32;;;;;;;9.88;3.40;;;13.60;83.30;;;;;;5094235;28;20055;-78
2023/05/19 02:44:59;;;;;;;7.78;3.10;;;13.60;82.80;;;;;;5093946;28;20505;-77
2023/05/19 02:47:25;;;;;;;11.90;3.30;;;13.60;82.90;;;;;;5093975;28;20035;-77
2023/05/19 02:49:50;;;;;;;7.38;2.53;;;13.50;82.90;;;;;;5059431;28;20031;-78
2023/05/19 02:52:16;;;;;;;7.68;3.20;;;13.40;83.40;;;;;;5076176;28;20028;-78
2023/05/19 02:54:42;;;;;;;10.27;4.22;;;13.30;83.70;;;;;;5075803;28;20028;-78
2023/05/19 02:57:07;;;;;;;9.15;3.55;;;13.20;84.20;;;;;;5092639;28;20028;-77
2023/05/19 02:59:33;;;;;;;7.85;3.13;;;12.90;85.20;;;;;;5075269;28;20044;-77
2023/05/19 03:02:00;;;;;;;5.60;2.53;;;12.70;85.90;;;;;;5058851;28;20055;-77
2023/05/19 03:04:26;;;;;;;8.00;3.30;;;12.80;86.20;;;;;;5076161;28;20077;-77
2023/05/19 03:06:53;;;;;;;7.47;2.60;;;12.90;85.90;;;;;;5093948;28;20036;-77
2023/05/19 03:09:18;;;;;;;6.90;2.90;;;13.00;85.80;;;;;;5093736;28;20032;-77
2023/05/19 03:11:44;;;;;;;11.68;3.60;;;13.00;85.60;;;;;;5094156;28;20032;-77
2023/05/19 03:14:10;;;;;;;9.55;2.45;;;13.10;85.50;;;;;;5075841;28;20036;-77
2023/05/19 03:16:36;;;;;;;6.43;2.85;;;13.10;85.60;;;;;;5093866;28;20468;-77
2023/05/19 03:19:02;;;;;;;12.18;3.08;;;13.00;85.70;;;;;;5075630;28;20132;-77
2023/05/19 03:21:29;;;;;;;7.75;3.45;;;13.10;85.70;;;;;;5075778;28;20142;-77
2023/05/19 03:23:54;;;;;;;12.13;3.58;;;13.10;85.60;;;;;;5093207;28;20518;-77
2023/05/19 03:26:21;;;;;;;12.27;3.78;;;13.20;85.60;;;;;;5075645;28;20036;-77
2023/05/19 03:28:47;;;;;;;5.28;2.05;;;13.20;85.60;;;;;;5093341;28;20364;-77
2023/05/19 03:31:13;;;;;;;6.88;2.75;;;13.10;85.70;;;;;;5075641;28;20032;-77
2023/05/19 03:33:38;;;;;;;5.72;2.65;;;13.20;85.70;;;;;;5075481;28;20034;-78
2023/05/19 03:36:04;;;;;;;9.40;3.42;;;13.30;85.50;;;;;;5075487;28;20062;-77
2023/05/19 03:38:30;;;;;;;4.82;2.30;;;13.30;85.40;;;;;;5075643;28;20043;-77
2023/05/19 03:40:55;;;;;;;11.93;3.17;;;13.20;85.50;;;;;;5093520;28;20024;-77
2023/05/19 03:43:21;;;;;;;7.78;2.92;;;13.30;85.50;;;;;;5093550;28;20384;-77
2023/05/19 03:45:47;;;;;;;9.65;3.80;;;13.20;85.50;;;;;;5093555;28;20039;-77
2023/05/19 03:48:14;;;;;;;10.25;3.50;;;13.30;85.70;;;;;;5078446;28;20051;-78
2023/05/19 03:50:41;;;;;;;8.45;3.45;;;13.20;85.70;;;;;;5079885;28;20067;-77
2023/05/19 03:53:07;;;;;;;4.57;2.90;;;13.10;86.10;;;;;;5097641;28;20149;-77
2023/05/19 03:55:32;;;;;;;9.45;3.88;;;13.10;86.20;;;;;;5079200;28;20119;-77
2023/05/19 03:57:58;;;;;;;9.00;4.38;;;13.10;86.30;;;;;;5097468;28;20035;-77
2023/05/19 04:00:24;;;;;;;11.13;3.80;;;13.00;86.40;;;;;;5078733;28;20075;-77
2023/05/19 04:02:50;;;;;;;9.20;3.75;;;13.00;86.60;;;;;;5079703;28;20032;-77
2023/05/19 04:05:15;;;;;;;11.07;3.60;;;12.90;86.70;;;;;;5097124;28;20031;-77
2023/05/19 04:07:41;;;;;;;8.05;3.03;;;13.00;86.80;;;;;;5097055;28;20024;-78
2023/05/19 04:10:08;;;;;;;12.00;4.85;;;13.10;86.50;;;;;;5079122;28;20032;-77
2023/05/19 04:12:33;;;;;;;6.60;3.15;;;13.10;86.40;;;;;;5097183;28;20111;-77
2023/05/19 04:14:59;;;;;;;7.40;3.10;;;13.00;86.80;;;;;;5097217;28;20082;-77
2023/05/19 04:17:26;;;;;;;9.85;3.03;;;13.00;87.00;;;;;;5097160;28;20532;-77
2023/05/19 04:19:54;;;;;;;6.45;2.75;;;13.10;86.70;;;;;;5097071;28;20044;-77
2023/05/19 04:22:20;;;;;;;8.18;2.50;;;13.20;86.40;;;;;;5096547;28;20036;-77
2023/05/19 04:24:46;;;;;;;4.90;1.73;;;13.20;86.00;;;;;;5097058;28;20030;-77
2023/05/19 04:27:12;;;;;;;6.80;2.78;;;13.30;86.40;;;;;;5096962;28;20455;-77
2023/05/19 04:29:39;;;;;;;5.20;2.10;;;13.30;86.20;;;;;;5096466;28;20119;-77
2023/05/19 04:32:05;;;;;;;4.15;1.75;;;13.40;86.10;;;;;;5096830;28;20052;-77
2023/05/19 04:34:32;;;;;;;12.85;4.07;;;13.50;85.80;;;;;;5078577;28;20028;-77
2023/05/19 04:36:58;;;;;;;8.75;2.47;;;13.40;85.30;;;;;;5096742;28;20028;-77
2023/05/19 04:39:24;;;;;;;6.50;3.50;;;13.30;85.70;;;;;;5096345;28;20040;-77
2023/05/19 04:41:50;;;;;;;8.48;3.60;;;13.30;85.90;;;;;;5078477;28;20028;-77
2023/05/19 04:44:16;;;;;;;11.93;5.10;;;13.10;86.20;;;;;;5096561;28;20043;-77
2023/05/19 04:46:44;;;;;;;8.43;3.85;;;13.00;86.70;;;;;;5078175;28;20035;-77
2023/05/19 04:49:11;;;;;;;12.70;5.53;;;13.00;87.00;;;;;;5061608;28;20036;-77
2023/05/19 04:51:40;;;;;;;9.15;4.40;;;13.00;87.00;;;;;;5096110;28;20467;-77
2023/05/19 04:54:08;;;;;;;9.90;3.92;;;12.90;87.10;;;;;;5078651;28;20038;-77
2023/05/19 04:56:34;;;;;;;9.55;3.88;;;12.90;87.40;;;;;;5078755;28;20051;-77
2023/05/19 04:59:00;;;;;;;7.97;3.22;;;12.90;87.30;;;;;;5095631;28;20067;-77
2023/05/19 05:01:26;;;;;;;6.47;2.85;;;13.00;87.30;;;;;;5078065;28;20044;-77
2023/05/19 05:03:57;;;;;;;7.57;2.97;;;13.10;87.30;;;;;;5077985;28;20032;-77
2023/05/19 05:06:23;;;;;;;10.73;3.20;;;13.20;87.10;;;;;;5063053;28;20028;-77
2023/05/19 05:08:49;;;;;;;11.63;4.22;;;13.20;86.80;;;;;;5077940;28;20533;-77
2023/05/19 05:11:15;;;;;;;11.20;4.20;;;13.20;86.40;;;;;;5077975;28;20020;-77
2023/05/19 05:13:41;;;;;;;7.07;3.42;;;13.20;86.40;;;;;;5095706;28;20039;-76
2023/05/19 05:16:08;;;;;;;10.70;3.92;;;13.00;86.30;;;;;;5095808;28;20114;-77
2023/05/19 05:18:35;;;;;;;4.53;1.90;;;13.10;86.50;;;;;;5077641;28;20051;-76
2023/05/19 05:21:02;;;;;;;10.38;3.90;;;13.10;86.50;;;;;;5095894;28;20032;-77
2023/05/19 05:23:28;;;;;;;9.85;3.67;;;13.20;86.50;;;;;;5095944;28;20042;-77
2023/05/19 05:25:54;;;;;;;8.07;3.22;;;13.10;86.40;;;;;;5077815;28;20040;-77
2023/05/19 05:28:19;;;;;;;6.30;2.92;;;13.00;86.30;;;;;;5077732;28;20040;-77
2023/05/19 05:30:45;;;;;;;8.60;3.25;;;13.00;86.50;;;;;;5095115;28;20031;-77
2023/05/19 05:33:11;;;;;;;6.03;3.28;;;13.00;86.70;;;;;;5095477;28;20035;-77
2023/05/19 05:35:37;;;;;;;7.13;2.85;;;13.10;86.70;;;;;;5095595;28;20036;-77
2023/05/19 05:38:03;;;;;;;8.15;3.00;;;13.20;86.80;;;;;;5095158;28;20027;-77
2023/05/19 05:40:28;;;;;;;5.63;2.10;;;13.30;86.40;;;;;;5095526;28;20035;-77
2023/05/19 05:42:55;;;;;;;5.30;1.65;;;13.40;86.20;;;;;;5077156;28;20155;-78
2023/05/19 05:45:24;;;;;;;5.97;1.98;;;13.50;86.20;;;;;;5095420;28;20102;-77
2023/05/19 05:47:50;;;;;;;9.23;3.28;;;13.70;86.10;;;;;;5095499;28;20080;-77
2023/05/19 05:50:16;;;;;;;9.25;3.15;;;13.80;85.20;;;;;;5077180;28;20060;-77
2023/05/19 05:52:45;;;;;;;8.75;3.10;;;13.80;84.60;;;;;;5094787;28;20028;-77
2023/05/19 05:55:12;;;;;;;9.77;3.03;;;13.70;84.50;;;;;;5095079;28;20024;-77
2023/05/19 05:57:40;;;;;;;7.40;2.95;;;13.60;85.00;;;;;;5094941;28;20028;-77
2023/05/19 06:00:13;;;;;;;7.65;2.42;;;13.60;85.20;;;;;;5060745;28;20503;-77
2023/05/19 06:02:38;;;;;;;10.23;3.08;;;13.70;85.30;;;;;;5077002;28;20072;-76
2023/05/19 06:05:04;;;;;;;7.40;3.30;;;13.70;84.30;;;;;;5094554;28;20511;-77
2023/05/19 06:07:30;;;;;;;9.73;3.20;;;13.60;84.50;;;;;;5076687;28;20389;-77
2023/05/19 06:09:55;;;;;;;9.50;2.80;;;13.60;84.40;;;;;;5094497;28;20420;-77
2023/05/19 06:12:21;;;;;;;8.30;2.38;;;13.60;84.80;;;;;;5076762;28;20032;-77
2023/05/19 06:14:47;;;;;;;8.30;2.55;;;13.60;84.60;;;;;;5076851;28;20090;-77
2023/05/19 06:17:13;;;;;;;11.15;2.78;;;13.70;84.30;;;;;;5094485;28;20036;-76
2023/05/19 06:19:38;;;;;;;11.35;3.13;;;13.90;83.80;;;;;;5076520;28;20326;-77
2023/05/19 06:22:04;;;;;;;5.13;2.30;;;14.00;82.80;;;;;;5076610;28;20055;-77
2023/05/19 06:24:29;;;;;;;9.43;2.35;;;14.10;82.50;;;;;;5094432;28;20115;-77
2023/05/19 06:26:55;;;;;;;7.80;2.30;;;14.10;82.10;;;;;;5094701;28;20028;-77
2023/05/19 06:29:20;;;;;;;8.25;2.20;;;14.20;82.40;;;;;;5094189;28;20032;-77
2023/05/19 06:31:46;;;;;;;5.22;2.00;;;14.30;82.60;;;;;;5059689;28;20349;-76
2023/05/19 06:34:16;;;;;;;6.25;2.28;;;14.50;82.30;;;;;;5094286;28;20111;-77
2023/05/19 06:36:41;;;;;;;8.48;1.73;;;14.60;81.00;;;;;;5094426;28;20028;-77
2023/05/19 06:39:07;;;;;;;6.38;1.70;;;14.50;80.60;;;;;;5094310;28;20043;-76
2023/05/19 06:41:35;;;;;;;3.90;1.10;;;14.60;80.10;;;;;;5076052;28;20032;-77
2023/05/19 06:44:02;;;;;;;6.72;1.73;;;14.70;80.00;;;;;;5094260;28;20059;-76
2023/05/19 06:46:27;;;;;;;10.18;1.40;;;14.90;79.90;;;;;;5075981;28;20434;-78
2023/05/19 06:48:53;;;;;;;6.65;1.30;;;15.00;78.90;;;;;;5094142;28;20035;-77
2023/05/19 06:51:20;;;;;;;5.13;1.33;;;14.90;77.70;;;;;;5094079;28;20108;-77
2023/05/19 06:53:47;;;;;;;7.20;1.65;;;14.90;78.40;;;;;;5094047;28;20111;-77
2023/05/19 06:56:14;;;;;;;7.43;1.63;;;15.00;78.40;;;;;;5094090;28;20476;-77
2023/05/19 06:58:40;;;;;;;7.57;1.60;;;15.00;76.20;;;;;;5093256;28;20028;-76
2023/05/19 07:01:06;;;;;;;6.88;1.70;;;14.80;76.50;;;;;;5093960;28;20507;-77
2023/05/19 07:03:31;;;;;;;9.77;1.27;;;14.70;76.70;;;;;;5094093;28;20076;-77
2023/05/19 07:05:57;;;;;;;9.32;1.65;;;14.80;77.10;;;;;;5093709;28;20047;-77
2023/05/19 07:08:23;;;;;;;5.38;1.10;;;14.90;76.90;;;;;;5059087;28;20126;-77
2023/05/19 07:10:48;;;;;;;6.32;1.30;;;15.10;76.30;;;;;;5093698;28;20027;-77
2023/05/19 07:13:14;;;;;;;9.77;1.42;;;15.10;75.60;;;;;;5075874;28;20103;-77
2023/05/19 07:15:39;;;;;;;9.88;1.50;;;15.20;75.70;;;;;;5093953;28;20038;-77
2023/05/19 07:18:05;;;;;;;9.40;1.17;;;15.20;75.60;;;;;;5075411;28;20103;-77
2023/05/19 07:20:31;;;;;;;7.10;1.23;;;15.30;75.00;;;;;;5093559;28;20057;-78
2023/05/19 07:22:56;;;;;;;4.93;0.90;;;15.30;74.00;;;;;;5042381;28;20032;-77
2023/05/19 07:25:22;;;;;;;6.97;1.63;;;15.30;74.00;;;;;;5059178;28;20498;-77
2023/05/19 07:27:48;;;;;;;9.30;1.40;;;15.40;73.40;;;;;;5075712;28;20032;-77
2023/05/19 07:30:13;;;;;;;7.90;1.05;;;15.60;73.00;;;;;;5074970;28;20035;-76
2023/05/19 07:32:39;;;;;;;7.10;1.40;;;15.70;72.10;;;;;;5093175;28;20468;-77
2023/05/19 07:35:05;;;;;;;8.38;1.17;;;15.70;72.50;;;;;;5075713;28;20467;-77
2023/05/19 07:37:31;;;;;;;7.13;1.23;;;15.80;72.90;;;;;;5093346;28;20107;-77
2023/05/19 07:39:56;;;;;;;6.43;1.15;;;15.80;72.50;;;;;;5075581;28;20044;-77
2023/05/19 07:42:22;;;;;;;6.68;1.40;;;15.90;71.90;;;;;;5075387;28;20028;-77
2023/05/19 07:44:48;;;;;;;7.68;1.38;;;15.80;72.60;;;;;;5093349;28;20112;-77
2023/05/19 07:47:13;;;;;;;8.13;1.00;;;15.90;73.90;;;;;;5093584;28;20031;-75
2023/05/19 07:49:39;;;;;;;6.00;1.25;;;15.90;74.00;;;;;;5093455;28;20036;-77
2023/05/19 07:52:05;;;;;;;7.75;1.52;;;16.00;74.10;;;;;;5093532;28;20032;-77
2023/05/19 07:54:31;;;;;;;6.35;1.20;;;16.10;72.40;;;;;;5075262;28;20028;-78
2023/05/19 07:56:56;;;;;;;8.68;1.60;;;16.00;72.70;;;;;;5093023;28;20028;-77
2023/05/19 07:59:23;;;;;;;6.65;1.35;;;16.00;73.20;;;;;;5092920;28;20032;-77
2023/05/19 08:01:48;;;;;;;5.45;1.05;;;16.10;74.30;;;;;;5074857;28;20052;-76
2023/05/19 08:04:14;;;;;;;9.32;1.40;;;16.20;73.30;;;;;;5093346;28;20076;-77
2023/05/19 08:06:41;;;;;;;5.70;1.02;;;16.50;72.90;;;;;;5075332;28;20099;-77
2023/05/19 08:09:07;;;;;;;6.35;1.52;;;16.70;74.70;;;;;;5092033;28;20031;-77
2023/05/19 08:11:32;;;;;;;2.95;0.52;;;16.80;72.30;;;;;;5092785;28;20462;-77
2023/05/19 08:13:58;;;;;;;10.82;1.40;;;16.90;72.20;;;;;;5058580;28;20118;-77
2023/05/19 08:16:24;;;;;;;5.25;1.40;;;17.00;71.70;;;;;;5093245;28;20487;-78
2023/05/19 08:18:49;;;;;;;6.25;0.85;;;17.20;71.50;;;;;;5058390;28;20040;-77
2023/05/19 08:21:15;;;;;;;11.02;1.23;;;17.30;70.60;;;;;;5093199;28;20063;-77
2023/05/19 08:23:41;;;;;;;7.28;1.23;;;17.40;70.50;;;;;;5075226;28;20523;-77
2023/05/19 08:26:06;;;;;;;6.28;1.33;;;17.50;70.80;;;;;;5074849;28;20056;-77
2023/05/19 08:28:32;;;;;;;6.70;1.13;;;17.60;69.20;;;;;;5092713;28;20032;-80
2023/05/19 08:30:58;;;;;;;7.68;0.90;;;17.60;68.80;;;;;;5093086;28;20028;-77
2023/05/19 08:33:23;;;;;;;11.38;1.30;;;17.60;68.10;;;;;;5076480;28;20381;-77
2023/05/19 08:35:49;;;;;;;4.47;0.93;;;17.70;68.40;;;;;;5061717;28;20101;-77
2023/05/19 08:38:15;;;;;;;3.53;0.88;;;17.90;67.90;;;;;;5096418;28;20032;-76
2023/05/19 08:40:41;;;;;;;7.15;1.08;;;18.00;66.00;;;;;;5096444;28;20031;-74
2023/05/19 08:43:08;;;;;;;6.15;1.40;;;18.00;66.50;;;;;;5096401;28;20028;-77
2023/05/19 08:45:34;;;;;;;5.43;0.90;;;18.10;65.40;;;;;;5078517;28;20032;-77
2023/05/19 08:48:00;;;;;;;7.28;0.90;;;18.10;63.60;;;;;;5078517;28;20042;-77
2023/05/19 08:50:29;;;;;;;9.65;1.13;;;18.20;65.00;;;;;;5061511;28;20032;-77
2023/05/19 08:53:01;;;;;;;4.57;1.10;;;18.30;63.50;;;;;;5078573;28;20032;-77
2023/05/19 08:55:52;;;;;;;7.28;1.20;;;18.30;62.90;;;;;;5078302;28;20357;-77
2023/05/19 08:58:19;;;;;;;6.82;0.70;;;18.50;63.30;;;;;;5096216;28;20025;-78
2023/05/19 09:00:46;;;;;;;5.00;1.05;;;18.40;63.50;;;;;;5094401;28;20391;-78
2023/05/19 09:03:14;;;;;;;4.57;0.70;;;18.40;62.80;;;;;;5061191;28;20032;-77
2023/05/19 09:05:40;;;;;;;5.15;0.65;;;18.30;62.60;;;;;;5078190;28;20058;-78
2023/05/19 09:08:06;;;;;;;4.10;0.50;;;18.40;61.60;;;;;;5095773;28;20040;-78
2023/05/19 09:10:32;;;;;;;6.57;0.75;;;18.50;60.40;;;;;;5078286;28;20111;-78
2023/05/19 09:12:58;;;;;;;7.35;1.10;;;18.60;61.20;;;;;;5096220;28;20131;-78
2023/05/19 09:15:27;;;;;;;7.13;1.00;;;18.70;61.70;;;;;;5078003;28;20539;-78
2023/05/19 09:18:12;;;;;;;10.73;1.13;;;18.80;60.00;;;;;;5095738;28;20020;-77
2023/05/19 09:20:42;;;;;;;4.72;0.57;;;18.90;60.40;;;;;;5095989;28;20036;-77
2023/05/19 09:23:15;;;;;;;6.60;1.23;;;18.90;58.40;;;;;;5095764;28;20052;-77
2023/05/19 09:25:49;;;;;;;6.38;0.77;;;19.00;58.60;;;;;;5077757;28;20050;-78
2023/05/19 09:28:21;;;;;;;5.07;0.77;;;19.10;60.70;;;;;;5095695;28;20023;-77
2023/05/19 09:30:47;;;;;;;;;;;19.20;60.20;;;;;;5078353;28;20036;-78
2023/05/19 09:33:18;;;;;;;3.92;0.70;;;19.20;57.40;;;;;;5077355;28;19918;-78
2023/05/19 09:35:47;;;;;;;5.30;0.85;;;19.30;58.00;;;;;;5095275;28;20028;-78
2023/05/19 09:38:17;;;;;;;7.30;1.08;;;19.40;59.10;;;;;;5076935;28;20036;-78
2023/05/19 09:40:43;;;;;;;4.57;0.65;;;19.50;58.20;;;;;;5095430;28;20107;-78
2023/05/19 09:43:09;;;;;;;6.53;1.08;;;19.60;58.20;;;;;;5077446;28;20059;-78
2023/05/19 09:45:35;;;;;;;4.50;1.02;;;19.60;57.60;;;;;;5076364;28;20039;-77
2023/05/19 09:48:03;;;;;;;7.85;0.85;;;19.60;58.20;;;;;;5095243;28;20380;-78
2023/05/19 09:50:29;;;;;;;6.00;0.95;;;19.80;58.00;;;;;;5077339;28;20028;-77
2023/05/19 09:52:56;;;;;;;5.20;0.93;;;19.80;58.00;;;;;;5095278;28;20076;-79
2023/05/19 09:55:25;;;;;;;5.13;0.85;;;19.90;59.70;;;;;;5095526;28;20472;-78
2023/05/19 09:57:54;;;;;;;6.95;0.70;;;19.80;58.10;;;;;;5077088;28;20039;-78
2023/05/19 10:00:21;;;;;;;4.15;0.80;;;19.80;57.70;;;;;;5076383;28;20040;-77
2023/05/19 10:02:49;;;;;;;3.65;1.00;;;19.60;58.00;;;;;;5076997;28;20401;-78
2023/05/19 10:05:18;;;;;;;6.68;0.95;;;19.70;58.10;;;;;;5076936;28;20419;-77
2023/05/19 10:07:47;;;;;;;7.15;1.00;;;19.80;56.10;;;;;;5094880;28;20036;-77
2023/05/19 10:10:13;;;;;;;4.93;0.80;;;19.80;56.10;;;;;;5094952;28;20024;-77
2023/05/19 10:12:39;;;;;;;5.55;1.15;;;19.80;57.30;;;;;;5095153;28;20032;-77
2023/05/19 10:15:10;;;;;;;4.03;0.93;;;19.80;59.00;;;;;;5094768;28;20020;-77
2023/05/19 10:17:41;;;;;;;4.93;0.80;;;19.90;58.40;;;;;;5094668;28;20067;-77
2023/05/19 10:20:16;;;;;;;6.47;0.82;;;19.80;59.30;;;;;;5094631;28;20384;-77
2023/05/19 10:22:43;;;;;;;5.75;1.20;;;19.90;59.10;;;;;;5076362;28;20483;-78
2023/05/19 10:25:10;;;;;;;3.67;0.47;;;20.00;57.80;;;;;;5076510;28;20021;-77
2023/05/19 10:27:40;;;;;;;8.05;1.30;;;20.00;57.30;;;;;;5076413;28;20556;-77
2023/05/19 10:30:12;;;;;;;5.50;1.25;;;20.00;56.80;;;;;;5094272;28;20031;-77
2023/05/19 10:32:41;;;;;;;4.78;1.10;;;20.10;57.40;;;;;;5076400;28;20486;-77
2023/05/19 10:35:09;;;;;;;5.75;1.02;;;20.20;58.60;;;;;;5093914;28;20039;-77
2023/05/19 10:37:49;;;;;;;4.70;1.15;;;20.40;58.40;;;;;;5094370;28;20024;-77
2023/05/19 10:40:31;;;;;;;6.07;0.88;;;20.50;57.50;;;;;;5094418;28;20036;-77
2023/05/19 10:43:12;;;;;;;6.28;1.25;;;20.60;57.50;;;;;;5094017;28;20024;-77
2023/05/19 10:45:47;;;;;;;7.07;1.15;;;20.70;55.30;;;;;;5094318;28;20026;-78
2023/05/19 10:48:15;;;;;;;7.30;1.35;;;20.70;56.20;;;;;;5094045;28;20150;-77
2023/05/19 10:50:44;;;;;;;6.47;1.08;;;20.60;53.90;;;;;;5093967;28;20029;-77
2023/05/19 10:53:18;;;;;;;4.22;0.80;;;20.50;55.00;;;;;;5075881;28;20024;-77
2023/05/19 10:55:47;;;;;;;3.50;1.02;;;20.40;55.80;;;;;;5094001;28;20475;-77
2023/05/19 10:58:13;;;;;;;4.72;0.80;;;20.40;55.70;;;;;;5076514;28;20141;-78
2023/05/19 11:00:40;;;;;;;5.22;1.20;;;20.30;57.20;;;;;;5093375;28;20032;-78
2023/05/19 11:03:17;;;;;;;3.50;0.80;;;20.30;56.70;;;;;;5094201;28;20052;-76
2023/05/19 11:05:45;;;;;;;5.20;1.42;;;20.20;56.20;;;;;;5093609;28;20094;-78
2023/05/19 11:08:11;;;;;;;5.28;1.10;;;20.30;56.40;;;;;;5076061;28;20071;-78
2023/05/19 11:10:37;;;;;;;5.15;1.20;;;20.30;56.60;;;;;;5094072;28;20118;-78
2023/05/19 11:13:06;;;;;;;7.38;1.88;;;20.30;57.50;;;;;;5092561;28;20043;-78
2023/05/19 11:15:36;;;;;;;5.10;1.10;;;20.40;57.50;;;;;;5093748;28;20096;-77
2023/05/19 11:18:03;;;;;;;4.63;1.02;;;20.40;56.60;;;;;;5093723;28;20465;-78
2023/05/19 11:20:33;;;;;;;6.75;1.83;;;20.40;56.30;;;;;;5093713;28;20154;-77
2023/05/19 11:23:09;;;;;;;6.35;0.70;;;20.40;56.70;;;;;;5075712;28;20031;-77
2023/05/19 11:25:48;;;;;;;4.13;0.93;;;20.40;57.00;;;;;;5075481;28;20512;-78
2023/05/19 11:28:25;;;;;;;6.30;1.08;;;20.50;56.50;;;;;;5075476;28;20040;-78
2023/05/19 11:30:53;;;;;;;7.32;1.20;;;20.70;57.30;;;;;;5093103;28;20445;-78
2023/05/19 11:33:20;;;;;;;4.50;0.88;;;20.70;55.20;;;;;;5093575;28;20111;-78
2023/05/19 11:35:50;;;;;;;4.05;0.90;;;20.70;55.50;;;;;;5093227;28;20111;-78
2023/05/19 11:38:19;;;;;;;3.67;0.90;;;20.70;56.90;;;;;;5093037;28;20024;-78
2023/05/19 11:40:48;;;;;;;4.28;0.88;;;20.80;56.80;;;;;;5093406;28;20032;-78
2023/05/19 11:43:15;;;;;;;5.22;0.98;;;21.10;59.10;;;;;;5075452;28;20036;-78
2023/05/19 11:45:41;;;;;;;8.23;1.15;;;21.40;56.60;;;;;;5093020;28;20078;-77
2023/05/19 11:48:14;;;;;;;3.38;1.33;;;21.50;54.70;;;;;;5093444;28;20494;-78
2023/05/19 11:50:42;;;;;;;5.78;1.10;;;21.70;54.60;;;;;;5075682;28;20082;-78
2023/05/19 11:53:11;;;;;;;7.20;1.00;;;21.80;54.40;;;;;;5058275;28;20177;-77
2023/05/19 11:55:43;;;;;;;4.55;0.98;;;21.80;54.50;;;;;;5074902;28;20061;-77
2023/05/19 11:58:08;;;;;;;4.70;0.80;;;21.90;54.20;;;;;;5075610;28;20483;-77
2023/05/19 12:00:36;;;;;;;7.15;1.20;;;22.00;54.40;;;;;;5092625;28;20036;-77
2023/05/19 12:03:02;;;;;;;5.47;1.58;;;22.20;55.20;;;;;;5092756;28;20044;-77
2023/05/19 12:05:28;;;;;;;4.05;1.00;;;22.20;53.80;;;;;;5093322;28;20117;-77
2023/05/19 12:07:54;;;;;;;5.07;1.05;;;22.20;54.10;;;;;;5076006;28;20149;-78
2023/05/19 12:10:27;;;;;;;6.55;1.42;;;22.20;54.10;;;;;;5079235;28;20475;-77
2023/05/19 12:12:54;;;;;;;5.80;1.25;;;21.80;52.40;;;;;;5062600;28;20039;-76
2023/05/19 12:15:21;;;;;;;7.03;1.33;;;21.60;54.00;;;;;;5097309;28;20032;-77
2023/05/19 12:17:58;;;;;;;6.35;1.25;;;21.80;54.50;;;;;;5096903;28;20380;-77
2023/05/19 12:20:25;;;;;;;6.18;1.52;;;21.80;54.00;;;;;;5097152;28;20122;-77
2023/05/19 12:22:51;;;;;;;6.88;1.20;;;21.60;52.20;;;;;;5079088;28;20031;-77
2023/05/19 12:25:17;;;;;;;4.45;0.93;;;21.50;52.20;;;;;;5096761;28;20451;-76
2023/05/19 12:27:43;;;;;;;7.13;1.25;;;21.30;52.60;;;;;;5078513;28;20066;-77
2023/05/19 12:30:11;;;;;;;3.85;1.00;;;21.30;53.10;;;;;;5096295;28;20028;-77
2023/05/19 12:32:37;;;;;;;3.95;0.90;;;21.40;53.20;;;;;;5078666;28;20062;-77
2023/05/19 12:35:04;;;;;;;4.90;0.90;;;21.70;53.30;;;;;;5096726;28;20044;-78
2023/05/19 12:37:32;;;;;;;7.20;1.30;;;21.90;52.40;;;;;;5061983;28;20028;-78
2023/05/19 12:39:58;;;;;;;4.32;1.17;;;22.10;53.50;;;;;;5078399;28;20495;-78
2023/05/19 12:42:30;;;;;;;3.90;0.90;;;22.30;54.20;;;;;;5096700;28;20036;-77
2023/05/19 12:44:57;;;;;;;5.30;1.20;;;22.30;53.00;;;;;;5096545;28;20031;-77
2023/05/19 12:47:33;;;;;;;5.55;0.93;;;22.20;51.90;;;;;;5078341;28;20043;-77
2023/05/19 12:49:59;;;;;;;3.20;0.73;;;22.10;52.50;;;;;;5096586;28;20028;-78